sensor_id;sensor_type;location;lat;lon;timestamp;P1;durP1;ratioP1;P2;durP2;ratioP2
61673;SDS011;47573;43.832;5.974;2023-09-07T00:01:05;211.93;;;102.22;;
61673;SDS011;47573;43.832;5.974;2023-09-07T00:07:46;194.23;;;93.53;;
61673;SDS011;47573;43.832;5.974;2023-09-07T00:14:28;178.40;;;89.93;;
61673;SDS011;47573;43.832;5.974;2023-09-07T00:21:09;168.48;;;81.93;;
61673;SDS011;47573;43.832;5.974;2023-09-07T00:27:49;160.57;;;77.97;;
61673;SDS011;47573;43.832;5.974;2023-09-07T00:34:31;144.40;;;70.60;;
61673;SDS011;47573;43.832;5.974;2023-09-07T00:41:14;136.93;;;67.68;;
61673;SDS011;47573;43.832;5.974;2023-09-07T00:47:55;121.25;;;60.53;;
61673;SDS011;47573;43.832;5.974;2023-09-07T00:54:37;113.88;;;56.50;;
61673;SDS011;47573;43.832;5.974;2023-09-07T01:01:18;102.65;;;52.35;;
61673;SDS011;47573;43.832;5.974;2023-09-07T01:07:59;89.63;;;46.67;;
61673;SDS011;47573;43.832;5.974;2023-09-07T01:14:51;82.43;;;44.60;;
61673;SDS011;47573;43.832;5.974;2023-09-07T01:21:34;81.57;;;42.60;;
61673;SDS011;47573;43.832;5.974;2023-09-07T01:28:15;72.72;;;39.65;;
61673;SDS011;47573;43.832;5.974;2023-09-07T01:34:56;61.53;;;34.77;;
61673;SDS011;47573;43.832;5.974;2023-09-07T01:41:39;64.97;;;33.55;;
61673;SDS011;47573;43.832;5.974;2023-09-07T01:48:19;57.83;;;32.03;;
61673;SDS011;47573;43.832;5.974;2023-09-07T01:55:00;49.97;;;30.03;;
61673;SDS011;47573;43.832;5.974;2023-09-07T02:01:42;52.10;;;28.80;;
61673;SDS011;47573;43.832;5.974;2023-09-07T02:08:22;45.97;;;25.87;;
61673;SDS011;47573;43.832;5.974;2023-09-07T02:15:03;41.63;;;24.37;;
61673;SDS011;47573;43.832;5.974;2023-09-07T02:21:46;37.30;;;22.63;;
61673;SDS011;47573;43.832;5.974;2023-09-07T02:28:27;36.97;;;21.35;;
61673;SDS011;47573;43.832;5.974;2023-09-07T02:35:07;32.38;;;20.55;;
61673;SDS011;47573;43.832;5.974;2023-09-07T02:41:49;31.98;;;18.17;;
61673;SDS011;47573;43.832;5.974;2023-09-07T02:48:30;32.13;;;17.65;;
61673;SDS011;47573;43.832;5.974;2023-09-07T02:55:10;26.90;;;16.50;;
61673;SDS011;47573;43.832;5.974;2023-09-07T03:01:52;27.30;;;15.47;;
61673;SDS011;47573;43.832;5.974;2023-09-07T03:08:33;26.00;;;15.68;;
61673;SDS011;47573;43.832;5.974;2023-09-07T03:15:13;22.37;;;13.90;;
61673;SDS011;47573;43.832;5.974;2023-09-07T03:21:57;22.08;;;13.88;;
61673;SDS011;47573;43.832;5.974;2023-09-07T03:28:37;23.52;;;14.02;;
61673;SDS011;47573;43.832;5.974;2023-09-07T03:35:18;21.37;;;12.73;;
61673;SDS011;47573;43.832;5.974;2023-09-07T03:42:00;20.35;;;13.02;;
61673;SDS011;47573;43.832;5.974;2023-09-07T03:48:40;17.70;;;12.10;;
61673;SDS011;47573;43.832;5.974;2023-09-07T03:55:21;21.47;;;11.73;;
61673;SDS011;47573;43.832;5.974;2023-09-07T04:02:02;17.93;;;11.53;;
61673;SDS011;47573;43.832;5.974;2023-09-07T04:08:43;16.17;;;11.32;;
61673;SDS011;47573;43.832;5.974;2023-09-07T04:15:24;13.80;;;10.60;;
61673;SDS011;47573;43.832;5.974;2023-09-07T04:22:06;14.40;;;10.23;;
61673;SDS011;47573;43.832;5.974;2023-09-07T04:28:47;19.65;;;10.35;;
61673;SDS011;47573;43.832;5.974;2023-09-07T04:35:28;16.50;;;10.37;;
61673;SDS011;47573;43.832;5.974;2023-09-07T04:42:10;17.17;;;9.77;;
61673;SDS011;47573;43.832;5.974;2023-09-07T04:48:51;14.98;;;10.02;;
61673;SDS011;47573;43.832;5.974;2023-09-07T04:55:36;16.73;;;9.70;;
61673;SDS011;47573;43.832;5.974;2023-09-07T05:02:18;15.52;;;9.88;;
61673;SDS011;47573;43.832;5.974;2023-09-07T05:08:59;14.47;;;9.70;;
61673;SDS011;47573;43.832;5.974;2023-09-07T05:15:46;13.93;;;9.48;;
61673;SDS011;47573;43.832;5.974;2023-09-07T05:22:29;13.57;;;9.93;;
61673;SDS011;47573;43.832;5.974;2023-09-07T05:29:10;13.02;;;9.32;;
61673;SDS011;47573;43.832;5.974;2023-09-07T05:35:51;14.52;;;9.80;;
61673;SDS011;47573;43.832;5.974;2023-09-07T05:42:33;19.67;;;9.27;;
61673;SDS011;47573;43.832;5.974;2023-09-07T05:49:14;13.43;;;8.95;;
61673;SDS011;47573;43.832;5.974;2023-09-07T05:55:54;13.63;;;9.40;;
61673;SDS011;47573;43.832;5.974;2023-09-07T06:02:36;15.23;;;10.13;;
61673;SDS011;47573;43.832;5.974;2023-09-07T06:09:17;15.32;;;9.60;;
61673;SDS011;47573;43.832;5.974;2023-09-07T06:15:57;18.57;;;10.47;;
61673;SDS011;47573;43.832;5.974;2023-09-07T06:22:39;74.82;;;23.58;;
61673;SDS011;47573;43.832;5.974;2023-09-07T06:29:20;13.03;;;9.50;;
61673;SDS011;47573;43.832;5.974;2023-09-07T06:36:00;25.67;;;12.00;;
61673;SDS011;47573;43.832;5.974;2023-09-07T06:42:42;23.40;;;11.77;;
61673;SDS011;47573;43.832;5.974;2023-09-07T06:49:22;14.83;;;10.13;;
61673;SDS011;47573;43.832;5.974;2023-09-07T06:56:03;14.82;;;9.57;;
61673;SDS011;47573;43.832;5.974;2023-09-07T07:02:45;13.90;;;9.77;;
61673;SDS011;47573;43.832;5.974;2023-09-07T07:09:25;16.77;;;10.57;;
61673;SDS011;47573;43.832;5.974;2023-09-07T07:16:06;12.93;;;9.90;;
61673;SDS011;47573;43.832;5.974;2023-09-07T07:22:48;18.03;;;10.13;;
61673;SDS011;47573;43.832;5.974;2023-09-07T07:29:28;19.75;;;11.27;;
61673;SDS011;47573;43.832;5.974;2023-09-07T07:36:09;15.63;;;9.97;;
61673;SDS011;47573;43.832;5.974;2023-09-07T07:42:51;13.03;;;10.00;;
61673;SDS011;47573;43.832;5.974;2023-09-07T07:49:32;13.98;;;9.70;;
61673;SDS011;47573;43.832;5.974;2023-09-07T07:56:16;14.37;;;9.70;;
61673;SDS011;47573;43.832;5.974;2023-09-07T08:02:58;15.23;;;10.38;;
61673;SDS011;47573;43.832;5.974;2023-09-07T08:09:39;12.53;;;9.20;;
61673;SDS011;47573;43.832;5.974;2023-09-07T08:16:20;11.87;;;9.57;;
61673;SDS011;47573;43.832;5.974;2023-09-07T08:23:01;12.50;;;10.00;;
61673;SDS011;47573;43.832;5.974;2023-09-07T08:29:42;11.70;;;9.55;;
61673;SDS011;47573;43.832;5.974;2023-09-07T08:36:23;12.37;;;9.53;;
61673;SDS011;47573;43.832;5.974;2023-09-07T08:43:04;13.00;;;9.80;;
61673;SDS011;47573;43.832;5.974;2023-09-07T08:49:45;12.02;;;9.10;;
61673;SDS011;47573;43.832;5.974;2023-09-07T08:56:27;12.45;;;9.38;;
61673;SDS011;47573;43.832;5.974;2023-09-07T09:03:09;12.48;;;9.60;;
61673;SDS011;47573;43.832;5.974;2023-09-07T09:09:50;11.27;;;8.87;;
61673;SDS011;47573;43.832;5.974;2023-09-07T09:16:30;16.30;;;12.47;;
61673;SDS011;47573;43.832;5.974;2023-09-07T09:23:12;25.10;;;17.30;;
61673;SDS011;47573;43.832;5.974;2023-09-07T09:29:53;24.00;;;16.08;;
61673;SDS011;47573;43.832;5.974;2023-09-07T09:36:33;18.90;;;13.15;;
61673;SDS011;47573;43.832;5.974;2023-09-07T09:43:16;14.90;;;9.10;;
61673;SDS011;47573;43.832;5.974;2023-09-07T09:49:59;10.73;;;8.10;;
61673;SDS011;47573;43.832;5.974;2023-09-07T10:03:24;9.90;;;6.95;;
61673;SDS011;47573;43.832;5.974;2023-09-07T10:10:08;14.27;;;7.57;;
61673;SDS011;47573;43.832;5.974;2023-09-07T10:16:50;14.38;;;7.30;;
61673;SDS011;47573;43.832;5.974;2023-09-07T10:23:36;11.35;;;8.77;;
61673;SDS011;47573;43.832;5.974;2023-09-07T10:30:18;34.60;;;24.65;;
61673;SDS011;47573;43.832;5.974;2023-09-07T10:36:59;56.00;;;38.70;;
61673;SDS011;47573;43.832;5.974;2023-09-07T10:43:47;94.80;;;53.20;;
61673;SDS011;47573;43.832;5.974;2023-09-07T10:50:28;127.30;;;75.47;;
61673;SDS011;47573;43.832;5.974;2023-09-07T10:57:09;123.50;;;86.70;;
61673;SDS011;47573;43.832;5.974;2023-09-07T11:03:52;126.63;;;87.17;;
61673;SDS011;47573;43.832;5.974;2023-09-07T11:10:33;274.73;;;128.70;;
61673;SDS011;47573;43.832;5.974;2023-09-07T11:17:14;118.07;;;82.83;;
61673;SDS011;47573;43.832;5.974;2023-09-07T11:23:58;117.17;;;81.47;;
61673;SDS011;47573;43.832;5.974;2023-09-07T11:30:48;114.93;;;79.93;;
61673;SDS011;47573;43.832;5.974;2023-09-07T11:37:28;112.80;;;78.13;;
61673;SDS011;47573;43.832;5.974;2023-09-07T11:44:12;109.35;;;75.93;;
61673;SDS011;47573;43.832;5.974;2023-09-07T11:50:52;101.78;;;72.07;;
61673;SDS011;47573;43.832;5.974;2023-09-07T11:57:33;105.80;;;74.40;;
61673;SDS011;47573;43.832;5.974;2023-09-07T12:04:15;110.00;;;72.82;;
61673;SDS011;47573;43.832;5.974;2023-09-07T12:10:55;98.30;;;68.53;;
61673;SDS011;47573;43.832;5.974;2023-09-07T12:17:36;98.80;;;69.33;;
61673;SDS011;47573;43.832;5.974;2023-09-07T12:24:19;97.00;;;66.90;;
61673;SDS011;47573;43.832;5.974;2023-09-07T12:30:59;94.95;;;66.15;;
61673;SDS011;47573;43.832;5.974;2023-09-07T12:37:40;95.97;;;67.18;;
61673;SDS011;47573;43.832;5.974;2023-09-07T12:44:22;87.57;;;61.88;;
61673;SDS011;47573;43.832;5.974;2023-09-07T12:51:02;89.72;;;62.75;;
61673;SDS011;47573;43.832;5.974;2023-09-07T12:57:43;87.87;;;62.03;;
61673;SDS011;47573;43.832;5.974;2023-09-07T13:04:24;86.17;;;61.33;;
61673;SDS011;47573;43.832;5.974;2023-09-07T13:11:05;90.90;;;63.42;;
61673;SDS011;47573;43.832;5.974;2023-09-07T13:17:45;83.60;;;59.27;;
61673;SDS011;47573;43.832;5.974;2023-09-07T13:24:27;81.83;;;58.83;;
61673;SDS011;47573;43.832;5.974;2023-09-07T13:31:08;80.78;;;58.03;;
61673;SDS011;47573;43.832;5.974;2023-09-07T13:37:48;81.93;;;57.60;;
61673;SDS011;47573;43.832;5.974;2023-09-07T13:44:30;81.23;;;56.70;;
61673;SDS011;47573;43.832;5.974;2023-09-07T13:51:10;79.50;;;56.33;;
61673;SDS011;47573;43.832;5.974;2023-09-07T13:57:51;79.63;;;55.83;;
61673;SDS011;47573;43.832;5.974;2023-09-07T14:04:33;74.23;;;54.23;;
61673;SDS011;47573;43.832;5.974;2023-09-07T14:11:13;76.72;;;53.22;;
61673;SDS011;47573;43.832;5.974;2023-09-07T14:17:54;75.20;;;50.72;;
61673;SDS011;47573;43.832;5.974;2023-09-07T14:24:36;69.60;;;50.73;;
61673;SDS011;47573;43.832;5.974;2023-09-07T14:31:16;70.28;;;50.10;;
61673;SDS011;47573;43.832;5.974;2023-09-07T14:37:57;70.17;;;49.87;;
61673;SDS011;47573;43.832;5.974;2023-09-07T14:44:39;71.57;;;50.57;;
61673;SDS011;47573;43.832;5.974;2023-09-07T14:51:19;70.43;;;49.60;;
61673;SDS011;47573;43.832;5.974;2023-09-07T14:58:00;69.03;;;48.53;;
61673;SDS011;47573;43.832;5.974;2023-09-07T15:04:41;66.47;;;47.33;;
61673;SDS011;47573;43.832;5.974;2023-09-07T15:11:22;61.75;;;45.78;;
61673;SDS011;47573;43.832;5.974;2023-09-07T15:18:03;65.10;;;46.03;;
61673;SDS011;47573;43.832;5.974;2023-09-07T15:24:45;64.87;;;46.70;;
61673;SDS011;47573;43.832;5.974;2023-09-07T15:31:25;62.60;;;46.10;;
61673;SDS011;47573;43.832;5.974;2023-09-07T15:38:06;93.47;;;66.37;;
61673;SDS011;47573;43.832;5.974;2023-09-07T15:44:48;131.63;;;91.60;;
61673;SDS011;47573;43.832;5.974;2023-09-07T15:51:28;141.10;;;96.88;;
61673;SDS011;47573;43.832;5.974;2023-09-07T15:58:09;167.13;;;116.17;;
61673;SDS011;47573;43.832;5.974;2023-09-07T16:04:50;206.70;;;141.83;;
61673;SDS011;47573;43.832;5.974;2023-09-07T16:11:31;187.70;;;131.52;;
61673;SDS011;47573;43.832;5.974;2023-09-07T16:18:11;205.77;;;142.13;;
61673;SDS011;47573;43.832;5.974;2023-09-07T16:24:53;245.03;;;172.97;;
61673;SDS011;47573;43.832;5.974;2023-09-07T16:31:34;258.35;;;188.00;;
61673;SDS011;47573;43.832;5.974;2023-09-07T16:38:14;304.47;;;225.77;;
61673;SDS011;47573;43.832;5.974;2023-09-07T16:44:56;340.43;;;258.67;;
61673;SDS011;47573;43.832;5.974;2023-09-07T16:51:36;120.80;;;84.85;;
61673;SDS011;47573;43.832;5.974;2023-09-07T16:58:17;69.10;;;50.30;;
61673;SDS011;47573;43.832;5.974;2023-09-07T17:04:59;71.37;;;54.00;;
61673;SDS011;47573;43.832;5.974;2023-09-07T17:11:39;35.55;;;26.88;;
61673;SDS011;47573;43.832;5.974;2023-09-07T17:18:20;26.63;;;17.83;;
61673;SDS011;47573;43.832;5.974;2023-09-07T17:25:02;16.60;;;12.87;;
61673;SDS011;47573;43.832;5.974;2023-09-07T17:31:43;21.30;;;14.80;;
61673;SDS011;47573;43.832;5.974;2023-09-07T17:38:23;13.53;;;10.97;;
61673;SDS011;47573;43.832;5.974;2023-09-07T17:45:06;46.80;;;30.17;;
61673;SDS011;47573;43.832;5.974;2023-09-07T17:51:47;23.20;;;15.45;;
61673;SDS011;47573;43.832;5.974;2023-09-07T17:58:27;27.70;;;19.20;;
61673;SDS011;47573;43.832;5.974;2023-09-07T18:05:09;53.20;;;38.93;;
61673;SDS011;47573;43.832;5.974;2023-09-07T18:11:49;14.30;;;10.30;;
61673;SDS011;47573;43.832;5.974;2023-09-07T18:18:30;78.07;;;54.90;;
61673;SDS011;47573;43.832;5.974;2023-09-07T18:25:12;41.65;;;29.42;;
61673;SDS011;47573;43.832;5.974;2023-09-07T18:31:52;18.35;;;10.68;;
61673;SDS011;47573;43.832;5.974;2023-09-07T18:38:33;95.90;;;67.10;;
61673;SDS011;47573;43.832;5.974;2023-09-07T18:45:15;47.33;;;33.80;;
61673;SDS011;47573;43.832;5.974;2023-09-07T18:51:55;98.70;;;59.92;;
61673;SDS011;47573;43.832;5.974;2023-09-07T18:58:36;40.17;;;29.27;;
61673;SDS011;47573;43.832;5.974;2023-09-07T19:05:18;19.40;;;12.05;;
61673;SDS011;47573;43.832;5.974;2023-09-07T19:11:58;16.98;;;8.35;;
61673;SDS011;47573;43.832;5.974;2023-09-07T19:18:39;44.67;;;30.93;;
61673;SDS011;47573;43.832;5.974;2023-09-07T19:25:21;77.95;;;56.03;;
61673;SDS011;47573;43.832;5.974;2023-09-07T19:32:01;20.20;;;16.13;;
61673;SDS011;47573;43.832;5.974;2023-09-07T19:38:42;25.98;;;14.90;;
61673;SDS011;47573;43.832;5.974;2023-09-07T19:45:24;18.33;;;12.93;;
61673;SDS011;47573;43.832;5.974;2023-09-07T19:52:04;18.00;;;11.55;;
61673;SDS011;47573;43.832;5.974;2023-09-07T19:58:45;19.23;;;11.77;;
61673;SDS011;47573;43.832;5.974;2023-09-07T20:05:27;21.63;;;11.57;;
61673;SDS011;47573;43.832;5.974;2023-09-07T20:12:07;22.13;;;12.52;;
61673;SDS011;47573;43.832;5.974;2023-09-07T20:18:48;19.77;;;11.03;;
61673;SDS011;47573;43.832;5.974;2023-09-07T20:25:30;16.17;;;10.55;;
61673;SDS011;47573;43.832;5.974;2023-09-07T20:32:11;57.93;;;34.80;;
61673;SDS011;47573;43.832;5.974;2023-09-07T20:38:51;42.53;;;24.93;;
61673;SDS011;47573;43.832;5.974;2023-09-07T20:45:38;29.27;;;18.88;;
61673;SDS011;47573;43.832;5.974;2023-09-07T20:52:19;24.83;;;16.25;;
61673;SDS011;47573;43.832;5.974;2023-09-07T20:59:00;27.92;;;15.68;;
61673;SDS011;47573;43.832;5.974;2023-09-07T21:05:41;28.30;;;16.67;;
61673;SDS011;47573;43.832;5.974;2023-09-07T21:12:22;37.23;;;23.23;;
61673;SDS011;47573;43.832;5.974;2023-09-07T21:19:04;50.10;;;30.47;;
61673;SDS011;47573;43.832;5.974;2023-09-07T21:25:46;45.30;;;27.27;;
61673;SDS011;47573;43.832;5.974;2023-09-07T21:32:26;41.30;;;24.27;;
61673;SDS011;47573;43.832;5.974;2023-09-07T21:39:07;34.07;;;19.17;;
61673;SDS011;47573;43.832;5.974;2023-09-07T21:45:49;28.58;;;18.13;;
61673;SDS011;47573;43.832;5.974;2023-09-07T21:52:29;26.40;;;16.00;;
61673;SDS011;47573;43.832;5.974;2023-09-07T21:59:10;46.40;;;30.48;;
61673;SDS011;47573;43.832;5.974;2023-09-07T22:05:55;44.38;;;29.48;;
61673;SDS011;47573;43.832;5.974;2023-09-07T22:12:35;50.38;;;30.20;;
61673;SDS011;47573;43.832;5.974;2023-09-07T22:19:15;60.60;;;33.83;;
61673;SDS011;47573;43.832;5.974;2023-09-07T22:25:57;69.60;;;44.90;;
61673;SDS011;47573;43.832;5.974;2023-09-07T22:32:38;113.43;;;70.17;;
61673;SDS011;47573;43.832;5.974;2023-09-07T22:39:18;111.70;;;70.10;;
61673;SDS011;47573;43.832;5.974;2023-09-07T22:46:00;119.90;;;74.43;;
61673;SDS011;47573;43.832;5.974;2023-09-07T22:52:41;108.63;;;71.23;;
61673;SDS011;47573;43.832;5.974;2023-09-07T22:59:21;108.63;;;69.23;;
61673;SDS011;47573;43.832;5.974;2023-09-07T23:06:03;108.35;;;69.97;;
61673;SDS011;47573;43.832;5.974;2023-09-07T23:12:44;100.25;;;64.55;;
61673;SDS011;47573;43.832;5.974;2023-09-07T23:19:24;107.93;;;71.17;;
61673;SDS011;47573;43.832;5.974;2023-09-07T23:26:06;126.03;;;81.38;;
61673;SDS011;47573;43.832;5.974;2023-09-07T23:32:47;107.50;;;69.10;;
61673;SDS011;47573;43.832;5.974;2023-09-07T23:39:28;93.28;;;60.33;;
61673;SDS011;47573;43.832;5.974;2023-09-07T23:46:10;88.70;;;58.22;;
61673;SDS011;47573;43.832;5.974;2023-09-07T23:52:50;81.43;;;54.17;;
61673;SDS011;47573;43.832;5.974;2023-09-07T23:59:30;82.67;;;51.50;;
